23.5F
Current conditions from King Hill
Updated every 5 minutes
 
  Sunday March 24, 2019

Observations for Westford

Westford

44° 37' 38"N, 73° 02' 29"W, Elevation 850 ft.
Eastern Time

Hourly observations for the last 72 hours

Date Time Temperature (°F) Humi-
dity

(%)
Wind
(mph)
Pressure Rain (in)
Air Dew 6 Hour 1 Hr 3 Hr 6 Hr Day
Alt
(in)
Sea
Level

(mb)
Max Min
24 03:00 24.0 15.6 70 SW 2 G 10 30.00 1016.0 0.00
24 02:00 25.3 15.9 27.1 21.2 67 WSW 2 G 9 29.99 1015.6 0.00
24 01:00 26.9 16.3 64 W 5 G 15 29.99 1015.6 0.00
24 00:00 22.1 15.7 76 W 0 G 4 29.98 1015.2 0.00
23 23:00 25.2 16.8 70 SW 0 G 8 29.97 1015.0 0.00
23 22:00 24.5 16.8 72 WSW 0 G 5 29.97 1014.8 0.00
23 21:00 25.0 16.3 69 W 1 G 7 29.97 1014.8 0.00
23 20:00 24.0 16.6 30.0 23.6 73 WSW 0 G 4 29.94 1013.9 0.00
23 19:00 26.0 17.9 71 W 0 G 7 29.91 1013.0 0.00
23 18:00 29.2 21.6 73 WNW 0 G 4 29.90 1012.4 0.00
23 17:00 29.0 22.4 76 WNW 1 G 11 29.87 1011.5 0.00
23 16:00 28.5 24.0 83 WNW 1 G 12 29.84 1010.7 0.00
23 15:00 28.1 24.7 87 WNW 2 G 13 29.82 1009.9 0.00
23 14:00 26.7 24.2 27.0 20.2 90 NNW 1 G 11 29.80 1009.2 0.00
23 13:00 25.1 23.1 92 N 0 G 1 29.77 1008.2 0.00
23 12:00 22.9 20.9 92 NW 0 G 1 29.75 1007.4 0.00
23 11:00 20.8 18.8 92 Calm 29.72 1006.4 0.00
23 10:00 20.4 18.7 93 NW 1 G 8 29.70 1005.7 0.00
23 09:00 20.7 19.0 93 NW 2 G 11 29.66 1004.4 0.00
23 08:00 20.8 19.1 28.2 20.7 93 NW 3 G 10 29.62 1003.1 0.00
23 07:00 21.1 19.6 94 NW 11 G 18 29.57 1001.5 0.00
23 06:00 22.4 20.9 94 NW 10 G 20 29.52 999.6 0.00
23 05:00 23.7 22.2 94 NW 11 G 23 29.46 997.8 0.00
23 04:00 25.4 24.2 95 NW 10 G 26 29.40 995.7 0.00
23 03:00 26.9 25.7 95 NNW 9 G 26 29.36 994.4 0.00
23 02:00 28.2 27.2 31.7 28.2 96 NNW 12 G 28 29.32 993.0 0.00
23 01:00 29.7 28.7 96 NW 8 G 23 29.29 991.9 0.00
23 00:00 30.5 29.5 96 NW 4 G 21 29.27 991.4 0.00
22 23:00 30.9 29.9 96 NNW 3 G 16 29.27 991.1 0.00
22 22:00 31.1 30.1 96 NNW 7 G 14 29.26 990.9 0.00
22 21:00 31.6 30.6 96 NW 5 G 20 29.25 990.6 0.00
22 20:00 31.6 30.3 33.2 30.6 95 NNW 4 G 19 29.24 990.3 0.00
22 19:00 30.8 29.5 95 NW 5 G 16 29.24 990.3 0.00
22 18:00 30.6 29.3 95 N 0 G 13 29.25 990.4 0.00
22 17:00 31.4 30.1 95 NNW 0 G 11 29.24 990.3 0.00
22 16:00 32.0 30.5 94 N 0 G 15 29.25 990.5 0.00
22 15:00 32.6 31.1 94 NNE 1 G 13 29.25 990.7 0.00
22 14:00 33.2 31.7 35.3 31.9 94 NNW 1 G 13 29.26 991.1 0.00
22 13:00 33.9 32.1 93 NNW 1 G 6 29.30 992.1 0.00
22 12:00 34.3 32.8 94 NNE 0 G 8 29.33 993.4 0.00
22 11:00 33.6 32.3 95 Calm 29.38 994.9 0.00
22 10:00 32.7 31.4 95 Calm 29.42 996.4 0.00
22 09:00 31.9 30.6 95 Calm 29.47 998.0 0.00
22 08:00 32.1 30.6 34.8 32.1 94 NE 0 G 5 29.50 999.2 0.00
22 07:00 32.7 30.6 92 NNE 0 G 4 29.53 1000.1 0.00
22 06:00 33.7 31.1 90 Calm 29.56 1000.9 0.00
22 05:00 33.7 31.4 91 Calm 29.58 1001.7 0.00
22 04:00 33.6 31.8 93 Calm 29.63 1003.4 0.00
22 03:00 33.9 31.8 92 Calm 29.68 1005.2 0.00
22 02:00 34.2 32.7 38.7 33.5 94 S 3 G 9 29.70 1005.9 0.00
22 01:00 33.9 32.1 93 Calm 29.71 1006.0 0.00
22 00:00 34.7 32.6 92 Calm 29.75 1007.3 0.00
21 23:00 35.6 33.2 91 Calm 29.79 1008.9 0.00
21 22:00 36.5 33.6 89 SSW 0 G 6 29.83 1010.3 0.00
21 21:00 37.9 33.5 84 SSE 2 G 6 29.86 1011.3 0.00
21 20:00 38.7 34.0 44.5 38.7 83 SSW 0 G 8 29.87 1011.5 0.00
21 19:00 39.9 34.9 82 S 3 G 11 29.88 1011.8 0.00
21 18:00 41.4 35.1 78 SSW 1 G 11 29.88 1012.0 0.00
21 17:00 44.0 34.9 70 SW 2 G 13 29.89 1012.3 0.00
21 16:00 44.5 35.3 70 SSW 6 G 15 29.90 1012.7 0.00
21 15:00 44.2 33.9 67 S 2 G 13 29.92 1013.3 0.00
21 14:00 42.9 32.3 42.9 37.7 66 SSW 4 G 16 29.95 1014.3 0.00
21 13:00 41.0 31.6 69 SSW 8 G 20 29.98 1015.3 0.00
21 12:00 40.6 30.1 66 S 7 G 16 30.00 1016.0 0.00
21 11:00 41.3 29.7 63 SSW 8 G 16 30.02 1016.6 0.00
21 10:00 40.9 29.7 64 S 5 G 16 30.04 1017.2 0.00
21 09:00 38.9 29.6 69 SSW 2 G 12 30.07 1018.3 0.00
21 08:00 37.7 29.5 38.4 37.1 72 SSW 2 G 10 30.08 1018.7 0.00
21 07:00 37.3 28.8 71 SSW 8 G 21 30.08 1018.8 0.00
21 06:00 37.5 27.9 68 S 6 G 15 30.09 1019.0 0.00
21 05:00 37.7 25.9 62 S 7 G 15 30.09 1019.1 0.00
21 04:00 38.0 24.5 58 S 6 G 18 30.10 1019.3 0.00

Data generated by WxSolution Version 1.9.1.7, Build 2018.11.24.


 
 
Current Radar Loop:

Copyright © WestfordWeather.net 2007-2019. All rights reserved.